createdAt,value
2023-12-28T00:00:21.809Z,101010.16
2023-12-28T00:03:24.987Z,101014.06
2023-12-28T00:06:28.367Z,101005.31
2023-12-28T00:09:31.827Z,101003.19
2023-12-28T00:12:34.763Z,100995.25
2023-12-28T00:15:37.926Z,100998.00
2023-12-28T00:18:41.273Z,101000.78
2023-12-28T00:21:45.554Z,101005.94
2023-12-28T00:24:48.491Z,101009.97
2023-12-28T00:27:51.719Z,101009.19
2023-12-28T00:30:54.834Z,101005.12
2023-12-28T00:33:58.027Z,101013.41
2023-12-28T00:37:01.001Z,101008.69
2023-12-28T00:40:04.675Z,101009.22
2023-12-28T00:43:08.503Z,101008.22
2023-12-28T00:46:11.779Z,101023.31
2023-12-28T00:49:14.589Z,101023.81
2023-12-28T00:52:17.968Z,101024.63
2023-12-28T00:55:20.876Z,101023.97
2023-12-28T00:58:24.161Z,101019.59
2023-12-28T01:01:26.994Z,101018.00
2023-12-28T01:04:30.643Z,101024.63
2023-12-28T01:07:33.703Z,101024.97
2023-12-28T01:10:36.971Z,101034.34
2023-12-28T01:13:42.446Z,101033.37
2023-12-28T01:16:46.378Z,101019.28
2023-12-28T01:19:49.549Z,101016.03
2023-12-28T01:22:52.998Z,101019.94
2023-12-28T01:25:57.895Z,101025.12
2023-12-28T01:29:03.290Z,101023.81
2023-12-28T01:32:07.333Z,101018.78
2023-12-28T01:35:10.837Z,101011.66
2023-12-28T01:38:13.682Z,101012.66
2023-12-28T01:41:17.213Z,101008.75
2023-12-28T01:44:20.078Z,100996.28
2023-12-28T01:47:23.212Z,100988.50
2023-12-28T01:50:27.436Z,100999.03
2023-12-28T01:53:31.102Z,100998.72
2023-12-28T01:56:34.224Z,101004.22
2023-12-28T01:59:38.653Z,100999.19
2023-12-28T02:02:43.526Z,100998.03
2023-12-28T02:05:47.889Z,100993.69
2023-12-28T02:08:50.928Z,100982.19
2023-12-28T02:11:55.855Z,100975.22
2023-12-28T02:14:58.809Z,100963.72
2023-12-28T02:18:21.245Z,100962.91
2023-12-28T02:21:26.543Z,100951.87
2023-12-28T02:24:29.427Z,100947.66
2023-12-28T02:27:33.649Z,100945.72
2023-12-28T02:30:36.856Z,100947.16
2023-12-28T02:33:51.255Z,100945.72
2023-12-28T02:36:57.951Z,100935.84
2023-12-28T02:40:02.918Z,100942.00
2023-12-28T02:43:10.129Z,100937.97
2023-12-28T02:46:13.322Z,100944.75
2023-12-28T02:49:17.215Z,100944.12
2023-12-28T02:52:20.603Z,100948.16
2023-12-28T02:55:23.683Z,100929.88
2023-12-28T02:58:27.152Z,100932.97
2023-12-28T03:01:30.280Z,100923.72
2023-12-28T03:04:33.461Z,100930.84
2023-12-28T03:07:38.060Z,100921.13
2023-12-28T03:10:41.242Z,100920.97
2023-12-28T03:13:43.992Z,100923.72
2023-12-28T03:16:47.281Z,100907.06
2023-12-28T03:19:50.140Z,100904.63
2023-12-28T03:22:54.028Z,100902.84
2023-12-28T03:25:57.017Z,100899.13
2023-12-28T03:28:59.998Z,100891.37
2023-12-28T03:32:02.944Z,100888.44
2023-12-28T03:35:08.349Z,100884.03
2023-12-28T03:38:11.347Z,100877.25
2023-12-28T03:41:20.924Z,100865.59
2023-12-28T03:44:23.889Z,100865.91
2023-12-28T03:47:27.132Z,100867.72
2023-12-28T03:50:29.863Z,100854.75
2023-12-28T03:53:34.164Z,100858.34
2023-12-28T03:56:37.051Z,100854.91
2023-12-28T03:59:41.329Z,100844.56
2023-12-28T04:02:45.458Z,100838.72
2023-12-28T04:05:48.760Z,100821.41
2023-12-28T04:08:51.576Z,100814.28
2023-12-28T04:11:54.770Z,100804.41
2023-12-28T04:14:58.325Z,100819.44
2023-12-28T04:18:01.724Z,100810.53
2023-12-28T04:21:05.195Z,100821.69
2023-12-28T04:24:08.488Z,100845.66
2023-12-28T04:27:11.717Z,100855.56
2023-12-28T04:30:15.243Z,100861.56
2023-12-28T04:33:20.520Z,100882.59
2023-12-28T04:36:23.991Z,100867.06
2023-12-28T04:39:27.381Z,100865.44
2023-12-28T04:42:30.554Z,100862.53
2023-12-28T04:45:33.425Z,100863.31
2023-12-28T04:48:36.683Z,100868.38
2023-12-28T04:51:44.883Z,100879.38
2023-12-28T04:54:48.361Z,100886.16
2023-12-28T04:57:51.290Z,100903.31
2023-12-28T05:00:55.052Z,100902.66
2023-12-28T05:03:57.892Z,100897.47
2023-12-28T05:07:01.234Z,100895.84
2023-12-28T05:10:04.236Z,100910.19
2023-12-28T05:13:07.861Z,100919.41
2023-12-28T05:16:10.910Z,100923.75
2023-12-28T05:19:14.034Z,100918.72
2023-12-28T05:22:16.868Z,100914.63
2023-12-28T05:25:20.695Z,100907.19
2023-12-28T05:28:23.419Z,100911.19
2023-12-28T05:31:26.918Z,100909.19
2023-12-28T05:34:29.832Z,100902.53
2023-12-28T05:37:33.052Z,100895.88
2023-12-28T05:40:35.906Z,100884.25
2023-12-28T05:43:39.591Z,100885.38
2023-12-28T05:46:42.541Z,100889.41
2023-12-28T05:49:45.967Z,100893.28
2023-12-28T05:52:48.951Z,100891.03
2023-12-28T05:55:52.029Z,100898.78
2023-12-28T05:58:54.911Z,100897.97
2023-12-28T06:01:58.513Z,100903.28
2023-12-28T06:05:01.872Z,100913.25
2023-12-28T06:08:05.328Z,100919.41
2023-12-28T06:11:09.155Z,100921.81
2023-12-28T06:14:13.659Z,100918.75
2023-12-28T06:17:16.959Z,100921.50
2023-12-28T06:20:20.776Z,100926.69
2023-12-28T06:23:24.107Z,100934.75
2023-12-28T06:26:26.850Z,100917.25
2023-12-28T06:29:29.906Z,100923.25
2023-12-28T06:32:32.931Z,100921.63
2023-12-28T06:35:36.084Z,100911.28
2023-12-28T06:38:39.423Z,100922.63
2023-12-28T06:41:42.592Z,100927.47
2023-12-28T06:44:45.800Z,100924.72
2023-12-28T06:47:48.939Z,100928.28
2023-12-28T06:50:51.667Z,100924.25
2023-12-28T06:53:54.979Z,100936.19
2023-12-28T06:56:57.921Z,100945.16
2023-12-28T07:00:03.358Z,100940.00
2023-12-28T07:03:06.307Z,100940.12
2023-12-28T07:06:10.432Z,100935.56
2023-12-28T07:09:13.662Z,100955.28
2023-12-28T07:12:17.004Z,100953.97
2023-12-28T07:15:19.873Z,100955.47
2023-12-28T07:18:24.565Z,100959.56
2023-12-28T07:21:27.693Z,100956.44
2023-12-28T07:24:31.049Z,100959.72
2023-12-28T07:27:38.307Z,100970.78
2023-12-28T07:30:42.816Z,100957.91
2023-12-28T07:33:45.963Z,100954.19
2023-12-28T07:36:49.277Z,100956.97
2023-12-28T07:39:52.597Z,100961.50
2023-12-28T07:42:55.968Z,100960.13
2023-12-28T07:45:59.241Z,100955.56
2023-12-28T07:49:02.615Z,100953.66
2023-12-28T07:52:05.957Z,100963.25
2023-12-28T07:55:10.231Z,100955.28
2023-12-28T07:58:13.860Z,100963.53
2023-12-28T08:01:17.268Z,100955.13
2023-12-28T08:04:20.521Z,100946.88
2023-12-28T08:07:23.443Z,100947.69
2023-12-28T08:10:26.744Z,100944.22
2023-12-28T08:13:29.567Z,100931.03
2023-12-28T08:16:33.086Z,100936.06
2023-12-28T08:19:36.637Z,100935.34
2023-12-28T08:22:39.936Z,100935.06
2023-12-28T08:25:42.955Z,100945.37
2023-12-28T08:28:46.062Z,100960.19
2023-12-28T08:31:49.201Z,100962.44
2023-12-28T08:34:52.509Z,100962.44
2023-12-28T08:37:55.607Z,100972.84
2023-12-28T08:40:59.005Z,100956.41
2023-12-28T08:44:01.986Z,100964.75
2023-12-28T08:47:05.718Z,100958.53
2023-12-28T08:50:09.010Z,100969.03
2023-12-28T08:53:12.536Z,100967.28
2023-12-28T08:56:18.436Z,100960.03
2023-12-28T08:59:21.986Z,100955.53
2023-12-28T09:02:24.792Z,100952.37
2023-12-28T09:05:28.183Z,100952.22
2023-12-28T09:08:31.318Z,100950.53
2023-12-28T09:11:34.611Z,100954.19
2023-12-28T09:14:37.549Z,100954.81
2023-12-28T09:17:41.029Z,100960.94
2023-12-28T09:20:44.400Z,100951.16
2023-12-28T09:23:47.652Z,100942.06
2023-12-28T09:26:50.711Z,100939.53
2023-12-28T09:29:54.062Z,100943.16
2023-12-28T09:32:57.239Z,100940.69
2023-12-28T09:36:01.145Z,100917.63
2023-12-28T09:39:05.421Z,100918.75
2023-12-28T09:42:25.797Z,100930.75
2023-12-28T09:45:28.845Z,100919.09
2023-12-28T09:48:33.846Z,100913.00
2023-12-28T09:51:36.944Z,100902.13
2023-12-28T09:54:40.341Z,100914.16
2023-12-28T09:57:43.761Z,100903.53
2023-12-28T10:00:49.388Z,100916.59
2023-12-28T10:03:52.672Z,100906.50
2023-12-28T10:06:55.847Z,100894.16
2023-12-28T10:09:59.224Z,100909.72
2023-12-28T10:13:03.727Z,100901.78
2023-12-28T10:16:10.498Z,100898.50
2023-12-28T10:19:13.615Z,100881.50
2023-12-28T10:22:17.132Z,100879.34
2023-12-28T10:25:20.432Z,100876.59
2023-12-28T10:28:23.689Z,100873.88
2023-12-28T10:31:27.007Z,100867.31
2023-12-28T10:34:30.853Z,100860.47
2023-12-28T10:37:37.125Z,100852.25
2023-12-28T10:40:43.132Z,100854.22
2023-12-28T10:44:09.446Z,100844.94
2023-12-28T10:47:20.150Z,100832.91
2023-12-28T10:50:27.795Z,100835.91
2023-12-28T10:53:50.618Z,100831.38
2023-12-28T10:57:01.062Z,100836.09
2023-12-28T11:00:13.154Z,100829.25
2023-12-28T11:03:23.995Z,100817.69
2023-12-28T11:06:31.133Z,100814.97
2023-12-28T11:09:35.518Z,100812.31
2023-12-28T11:12:39.996Z,100822.63
2023-12-28T11:15:42.984Z,100814.72
2023-12-28T11:18:47.979Z,100782.72
2023-12-28T11:21:52.058Z,100790.66
2023-12-28T11:24:55.700Z,100785.00
2023-12-28T11:27:58.655Z,100786.66
2023-12-28T11:31:02.824Z,100782.69
2023-12-28T11:34:11.736Z,100790.69
2023-12-28T11:37:22.400Z,100788.31
2023-12-28T11:40:25.259Z,100781.94
2023-12-28T11:43:29.118Z,100770.25
2023-12-28T11:46:37.041Z,100771.12
2023-12-28T11:49:43.736Z,100759.06
2023-12-28T11:52:50.648Z,100751.87
2023-12-28T11:55:54.003Z,100741.44
2023-12-28T11:58:59.583Z,100746.16
2023-12-28T12:02:02.817Z,100742.91
2023-12-28T12:05:09.933Z,100738.00
2023-12-28T12:08:15.594Z,100737.44
2023-12-28T12:11:19.842Z,100743.16
2023-12-28T12:14:22.829Z,100741.03
2023-12-28T12:17:27.031Z,100755.47
2023-12-28T12:20:31.221Z,100757.19
2023-12-28T12:23:34.574Z,100740.47
2023-12-28T12:26:37.531Z,100750.97
2023-12-28T12:29:40.850Z,100744.38
2023-12-28T12:32:45.090Z,100742.78
2023-12-28T12:35:48.552Z,100733.28
2023-12-28T12:38:51.964Z,100741.59
2023-12-28T12:41:58.391Z,100746.72
2023-12-28T12:45:01.334Z,100745.87
2023-12-28T12:48:05.918Z,100724.03
2023-12-28T12:51:09.662Z,100724.66
2023-12-28T12:54:12.794Z,100735.78
2023-12-28T12:57:16.580Z,100732.72
2023-12-28T13:00:21.036Z,100721.91
2023-12-28T13:03:29.191Z,100719.91
2023-12-28T13:06:33.052Z,100721.47
2023-12-28T13:09:36.867Z,100718.50
2023-12-28T13:12:40.337Z,100719.84
2023-12-28T13:15:43.388Z,100713.47
2023-12-28T13:18:46.749Z,100720.69
2023-12-28T13:21:49.983Z,100723.47
2023-12-28T13:24:56.514Z,100727.25
2023-12-28T13:28:17.944Z,100728.66
2023-12-28T13:31:21.391Z,100720.28
2023-12-28T13:34:24.405Z,100726.31
2023-12-28T13:37:27.886Z,100723.84
2023-12-28T13:40:32.591Z,100730.50
2023-12-28T13:43:35.885Z,100739.31
2023-12-28T13:46:38.603Z,100743.09
2023-12-28T13:49:41.999Z,100751.25
2023-12-28T13:52:44.853Z,100734.22
2023-12-28T13:55:52.131Z,100738.44
2023-12-28T13:58:55.264Z,100742.69
2023-12-28T14:02:00.702Z,100747.97
2023-12-28T14:05:04.703Z,100756.03
2023-12-28T14:08:07.896Z,100752.75
2023-12-28T14:11:11.332Z,100762.37
2023-12-28T14:14:15.459Z,100753.78
2023-12-28T14:17:21.191Z,100757.34
2023-12-28T14:20:24.272Z,100758.44
2023-12-28T14:23:27.857Z,100768.19
2023-12-28T14:26:33.862Z,100767.19
2023-12-28T14:29:37.923Z,100775.03
2023-12-28T14:32:41.206Z,100765.97
2023-12-28T14:35:47.525Z,100776.31
2023-12-28T14:38:51.076Z,100783.81
2023-12-28T14:41:54.367Z,100786.91
2023-12-28T14:44:57.096Z,100780.59
2023-12-28T14:48:00.877Z,100779.97
2023-12-28T14:51:04.309Z,100773.84
2023-12-28T14:54:07.619Z,100759.75
2023-12-28T14:57:10.622Z,100771.59
2023-12-28T15:00:14.413Z,100778.81
2023-12-28T15:03:17.849Z,100772.66
2023-12-28T15:06:21.020Z,100759.16
2023-12-28T15:09:24.043Z,100761.44
2023-12-28T15:12:27.716Z,100759.47
2023-12-28T15:15:31.457Z,100751.97
2023-12-28T15:18:35.636Z,100751.19
2023-12-28T15:21:39.444Z,100760.19
2023-12-28T15:24:43.075Z,100759.59
2023-12-28T15:27:46.016Z,100764.16
2023-12-28T15:30:49.666Z,100774.72
2023-12-28T15:33:53.885Z,100765.97
2023-12-28T15:36:58.270Z,100761.28
2023-12-28T15:40:01.383Z,100768.28
2023-12-28T15:43:04.694Z,100766.06
2023-12-28T15:46:08.125Z,100759.88
2023-12-28T15:49:11.614Z,100755.84
2023-12-28T15:52:17.156Z,100751.50
2023-12-28T15:55:20.965Z,100757.34
2023-12-28T15:58:24.042Z,100768.84
2023-12-28T16:01:27.448Z,100766.25
2023-12-28T16:04:30.671Z,100762.41
2023-12-28T16:07:35.042Z,100760.97
2023-12-28T16:10:38.114Z,100763.53
2023-12-28T16:13:44.606Z,100764.50
2023-12-28T16:16:48.617Z,100763.34
2023-12-28T16:19:51.861Z,100770.47
2023-12-28T16:22:55.774Z,100776.13
2023-12-28T16:25:58.696Z,100770.59
2023-12-28T16:29:04.075Z,100771.75
2023-12-28T16:32:08.131Z,100782.91
2023-12-28T16:35:11.729Z,100781.47
2023-12-28T16:38:14.774Z,100782.13
2023-12-28T16:41:18.067Z,100785.50
2023-12-28T16:44:21.262Z,100787.94
2023-12-28T16:47:24.988Z,100760.56
2023-12-28T16:50:27.954Z,100766.78
2023-12-28T16:53:31.216Z,100761.50
2023-12-28T16:56:34.076Z,100764.84
2023-12-28T16:59:37.303Z,100762.69
2023-12-28T17:02:46.179Z,100776.00
2023-12-28T17:06:00.903Z,100778.25
2023-12-28T17:09:15.175Z,100777.34
2023-12-28T17:12:47.131Z,100778.00
2023-12-28T17:16:00.680Z,100786.91
2023-12-28T17:19:04.263Z,100791.50
2023-12-28T17:22:12.228Z,100798.88
2023-12-28T17:25:30.154Z,100802.97
2023-12-28T17:29:08.633Z,100804.84
2023-12-28T17:32:16.598Z,100804.53
2023-12-28T17:35:21.937Z,100803.59
2023-12-28T17:38:27.721Z,100791.69
2023-12-28T17:41:36.179Z,100793.09
2023-12-28T17:44:43.990Z,100789.63
2023-12-28T17:48:10.748Z,100783.16
2023-12-28T17:51:16.012Z,100782.78
2023-12-28T17:54:19.541Z,100780.56
2023-12-28T17:57:22.924Z,100782.13
2023-12-28T18:00:25.996Z,100786.53
2023-12-28T18:03:29.501Z,100781.84
2023-12-28T18:06:33.118Z,100779.09
2023-12-28T18:09:41.802Z,100786.53
2023-12-28T18:12:45.436Z,100781.72
2023-12-28T18:15:48.561Z,100780.28
2023-12-28T18:18:52.396Z,100784.88
2023-12-28T18:21:55.275Z,100777.72
2023-12-28T18:24:59.741Z,100772.37
2023-12-28T18:28:03.433Z,100780.56
2023-12-28T18:31:07.619Z,100779.66
2023-12-28T18:34:11.038Z,100783.00
2023-12-28T18:37:17.801Z,100791.59
2023-12-28T18:40:21.931Z,100783.81
2023-12-28T18:43:25.360Z,100781.31
2023-12-28T18:46:29.044Z,100773.50
2023-12-28T18:49:34.910Z,100791.25
2023-12-28T18:52:38.105Z,100791.53
2023-12-28T18:55:42.688Z,100794.72
2023-12-28T18:58:46.046Z,100790.47
2023-12-28T19:01:51.054Z,100779.41
2023-12-28T19:04:55.446Z,100773.22
2023-12-28T19:08:00.813Z,100775.03
2023-12-28T19:11:04.842Z,100772.72
2023-12-28T19:14:08.959Z,100782.56
2023-12-28T19:17:13.457Z,100770.19
2023-12-28T19:20:17.821Z,100763.38
2023-12-28T19:23:40.385Z,100759.44
2023-12-28T19:26:45.195Z,100757.53
2023-12-28T19:29:49.178Z,100755.16
2023-12-28T19:32:54.137Z,100766.63
2023-12-28T19:35:58.421Z,100751.84
2023-12-28T19:39:03.823Z,100759.72
2023-12-28T19:42:08.016Z,100757.59
2023-12-28T19:45:12.767Z,100765.00
2023-12-28T19:48:16.961Z,100757.56
2023-12-28T19:51:21.658Z,100759.81
2023-12-28T19:54:25.535Z,100773.81
2023-12-28T19:57:29.732Z,100771.12
2023-12-28T20:00:34.406Z,100778.03
2023-12-28T20:03:40.173Z,100763.84
2023-12-28T20:06:48.021Z,100761.59
2023-12-28T20:09:52.730Z,100749.34
2023-12-28T20:12:56.812Z,100762.44
2023-12-28T20:16:00.755Z,100770.28
2023-12-28T20:19:04.567Z,100768.69
2023-12-28T20:22:08.527Z,100750.91
2023-12-28T20:25:13.063Z,100751.81
2023-12-28T20:28:18.038Z,100748.13
2023-12-28T20:31:25.409Z,100760.81
2023-12-28T20:34:29.838Z,100753.75
2023-12-28T20:37:34.079Z,100762.28
2023-12-28T20:40:38.728Z,100766.50
2023-12-28T20:43:43.131Z,100780.09
2023-12-28T20:46:47.772Z,100774.56
2023-12-28T20:49:53.383Z,100775.50
2023-12-28T20:52:58.005Z,100767.09
2023-12-28T20:56:02.220Z,100776.13
2023-12-28T20:59:06.904Z,100771.50
2023-12-28T21:02:10.312Z,100762.31
2023-12-28T21:05:13.936Z,100761.63
2023-12-28T21:08:16.843Z,100761.59
2023-12-28T21:11:19.952Z,100762.13
2023-12-28T21:14:23.131Z,100755.78
2023-12-28T21:17:26.497Z,100760.50
2023-12-28T21:20:29.415Z,100770.84
2023-12-28T21:23:32.904Z,100761.75
2023-12-28T21:26:35.737Z,100760.13
2023-12-28T21:29:40.521Z,100755.97
2023-12-28T21:32:43.615Z,100753.94
2023-12-28T21:35:46.879Z,100754.44
2023-12-28T21:38:49.801Z,100759.31
2023-12-28T21:41:53.069Z,100754.38
2023-12-28T21:44:57.174Z,100762.56
2023-12-28T21:48:00.679Z,100765.97
2023-12-28T21:51:03.855Z,100766.22
2023-12-28T21:54:07.426Z,100760.75
2023-12-28T21:57:10.726Z,100762.59
2023-12-28T22:00:14.213Z,100765.53
2023-12-28T22:03:17.508Z,100760.81
2023-12-28T22:06:20.263Z,100769.22
2023-12-28T22:09:23.771Z,100768.25
2023-12-28T22:12:29.498Z,100762.81
2023-12-28T22:15:35.924Z,100756.91
2023-12-28T22:18:39.054Z,100751.44
2023-12-28T22:21:42.656Z,100741.41
2023-12-28T22:24:45.528Z,100751.78
2023-12-28T22:27:48.679Z,100752.56
2023-12-28T22:30:51.497Z,100746.59
2023-12-28T22:33:55.065Z,100749.53
2023-12-28T22:36:57.937Z,100753.03
2023-12-28T22:40:03.360Z,100753.34
2023-12-28T22:43:06.396Z,100758.38
2023-12-28T22:46:15.298Z,100752.16
2023-12-28T22:49:18.292Z,100751.25
2023-12-28T22:52:21.705Z,100739.44
2023-12-28T22:55:24.492Z,100740.84
2023-12-28T22:58:27.683Z,100736.94
2023-12-28T23:01:30.528Z,100731.72
2023-12-28T23:04:40.193Z,100721.44
2023-12-28T23:07:49.500Z,100724.19
2023-12-28T23:10:52.721Z,100725.16
2023-12-28T23:13:56.405Z,100730.97
2023-12-28T23:16:59.555Z,100720.03
2023-12-28T23:20:02.740Z,100718.84
2023-12-28T23:23:06.364Z,100720.25
2023-12-28T23:26:09.285Z,100720.47
2023-12-28T23:29:12.590Z,100712.41
2023-12-28T23:32:15.398Z,100706.25
2023-12-28T23:35:18.742Z,100706.53
2023-12-28T23:38:21.674Z,100705.22
2023-12-28T23:41:25.449Z,100711.28
2023-12-28T23:44:28.212Z,100697.94
2023-12-28T23:47:31.350Z,100696.66
2023-12-28T23:50:34.312Z,100701.59
2023-12-28T23:53:39.368Z,100698.97
2023-12-28T23:56:42.275Z,100703.38
2023-12-28T23:59:45.453Z,100695.91
